Annville, Pennsylvania
Current Conditions -  °F | °C
As of 11:58 PM on Thursday 30 Oct 2014 (Local Time) from KMUI Reporting Station
Overcast Overcast  
Wind Chill: 44°   Ceiling: 5000
Heat Index: 44°   Visibility: 10mi
Dew Point: 38°   Wind: 2mph
Humidity: 79%   Direction: 350°N
Pressure: 30.03"   Gusts: NA
Location:  40.33°N, 76.51°W
Report Text: KMUI 310358Z AUTO 35002KT 10SM OVC050 07/03 A3003 RMK AO2 SLPNO T00680034
Loading
Personal Weather Stations






























Interactive Weather Map New forecast layout! Learn more

10-Day Weather Forecast

Advertisements
Track Severe Weather on mobile